Time;durP1;ratioP1;P1;durP2;ratioP2;P2;SDS_P1;SDS_P2;PMS_P1;PMS_P2;Temp;Humidity;BMP_temperature;BMP_pressure;BME280_temperature;BME280_humidity;BME280_pressure;Samples;Min_cycle;Max_cycle;Signal;HPM_P1;HPM_P2
2023/07/11 00:00:49;;;;;;;8.27;4.05;;;;;;;;;;5023473;28;20049;-60
2023/07/11 00:03:18;;;;;;;6.82;3.83;;;;;;;;;;5024233;28;20045;-71
2023/07/11 00:05:58;;;;;;;5.40;3.60;;;;;;;;;;5026916;28;20052;-64
2023/07/11 00:08:26;;;;;;;5.65;3.78;;;;;;;;;;5025516;28;20127;-60
2023/07/11 00:10:55;;;;;;;6.05;3.70;;;;;;;;;;5027886;28;20061;-60
2023/07/11 00:13:23;;;;;;;9.15;3.85;;;;;;;;;;5022655;28;20049;-59
2023/07/11 00:15:58;;;;;;;7.82;3.95;;;;;;;;;;5023065;28;20580;-67
2023/07/11 00:18:26;;;;;;;7.80;3.88;;;;;;;;;;5024285;28;20098;-68
2023/07/11 00:20:56;;;;;;;7.68;4.18;;;;;;;;;;5024830;28;20639;-61
2023/07/11 00:23:25;;;;;;;5.97;3.72;;;;;;;;;;5022729;28;20089;-67
2023/07/11 00:25:53;;;;;;;12.30;5.60;;;;;;;;;;5025814;28;20065;-61
2023/07/11 00:28:22;;;;;;;17.75;6.90;;;;;;;;;;5027365;28;20053;-61
2023/07/11 00:30:51;;;;;;;12.27;5.85;;;;;;;;;;5027367;28;20113;-61
2023/07/11 00:33:20;;;;;;;11.10;5.55;;;;;;;;;;5023151;28;20536;-68
2023/07/11 00:35:52;;;;;;;13.43;6.28;;;;;;;;;;5025496;28;20049;-62
2023/07/11 00:38:22;;;;;;;10.70;5.35;;;;;;;;;;5022846;28;20079;-60
2023/07/11 00:40:51;;;;;;;9.60;5.00;;;;;;;;;;5022011;28;20049;-63
2023/07/11 00:43:21;;;;;;;9.82;4.75;;;;;;;;;;5022381;28;20414;-60
2023/07/11 00:46:06;;;;;;;20.50;8.82;;;;;;;;;;5024638;28;20478;-63
2023/07/11 00:48:36;;;;;;;13.45;7.20;;;;;;;;;;5029270;28;20164;-60
2023/07/11 00:51:05;;;;;;;14.60;6.38;;;;;;;;;;5029438;28;20053;-66
2023/07/11 00:53:35;;;;;;;15.02;6.68;;;;;;;;;;5024643;28;20037;-64
2023/07/11 00:56:06;;;;;;;10.88;6.00;;;;;;;;;;5032800;28;20139;-61
2023/07/11 00:58:36;;;;;;;19.58;7.07;;;;;;;;;;5025516;28;20041;-70
2023/07/11 01:01:05;;;;;;;16.77;8.05;;;;;;;;;;5029091;28;20057;-59
2023/07/11 01:03:34;;;;;;;18.10;8.35;;;;;;;;;;5030352;22;20082;-59
2023/07/11 01:06:02;;;;;;;17.65;7.82;;;;;;;;;;5016089;28;20049;-61
2023/07/11 01:08:31;;;;;;;18.55;8.43;;;;;;;;;;5020961;28;20053;-72
2023/07/11 01:11:01;;;;;;;27.35;9.38;;;;;;;;;;5020503;28;20132;-68
2023/07/11 01:13:29;;;;;;;22.48;9.57;;;;;;;;;;5019422;28;20111;-71
2023/07/11 01:15:58;;;;;;;23.50;10.20;;;;;;;;;;5021096;28;20071;-67
2023/07/11 01:18:26;;;;;;;30.88;12.23;;;;;;;;;;5014457;28;20555;-60
2023/07/11 01:20:55;;;;;;;21.40;11.23;;;;;;;;;;5019441;28;21235;-60
2023/07/11 01:23:25;;;;;;;27.77;12.68;;;;;;;;;;5021228;28;20119;-61
2023/07/11 01:25:59;;;;;;;23.40;11.15;;;;;;;;;;5019524;28;20507;-68
2023/07/11 01:28:28;;;;;;;35.30;15.63;;;;;;;;;;5020247;28;20099;-59
2023/07/11 01:30:57;;;;;;;32.45;14.68;;;;;;;;;;5019038;28;20109;-60
2023/07/11 01:33:26;;;;;;;31.75;13.23;;;;;;;;;;5015631;28;20053;-66
2023/07/11 01:35:55;;;;;;;35.47;15.63;;;;;;;;;;5019219;28;20061;-66
2023/07/11 01:38:26;;;;;;;37.22;15.23;;;;;;;;;;5018028;28;20064;-61
2023/07/11 01:40:54;;;;;;;32.40;13.77;;;;;;;;;;5016973;28;20156;-59
2023/07/11 01:43:22;;;;;;;36.13;15.05;;;;;;;;;;5021427;28;20570;-59
2023/07/11 01:45:51;;;;;;;42.58;17.92;;;;;;;;;;5014109;28;20058;-64
2023/07/11 01:48:19;;;;;;;47.80;18.90;;;;;;;;;;5021320;28;20088;-64
2023/07/11 01:50:48;;;;;;;41.88;16.83;;;;;;;;;;5016057;28;20049;-59
2023/07/11 01:53:17;;;;;;;40.90;17.20;;;;;;;;;;5021201;28;20077;-60
2023/07/11 01:55:55;;;;;;;38.67;16.42;;;;;;;;;;5019350;28;20061;-73
2023/07/11 01:58:23;;;;;;;39.13;15.38;;;;;;;;;;5020363;28;20068;-64
2023/07/11 02:00:51;;;;;;;45.25;17.40;;;;;;;;;;5019745;28;20072;-63
2023/07/11 02:03:20;;;;;;;39.90;15.63;;;;;;;;;;5018383;28;20568;-63
2023/07/11 02:05:48;;;;;;;44.97;16.77;;;;;;;;;;5018567;28;20108;-69
2023/07/11 02:08:17;;;;;;;40.88;16.67;;;;;;;;;;5018662;28;20053;-59
2023/07/11 02:10:47;;;;;;;42.83;17.70;;;;;;;;;;5022612;28;20049;-59
2023/07/11 02:13:15;;;;;;;40.88;17.10;;;;;;;;;;5021557;28;20119;-62
2023/07/11 02:15:43;;;;;;;41.90;16.50;;;;;;;;;;5020681;28;20140;-62
2023/07/11 02:18:12;;;;;;;43.85;16.60;;;;;;;;;;5023332;28;20041;-71
2023/07/11 02:20:41;;;;;;;44.20;17.55;;;;;;;;;;5023178;28;20069;-60
2023/07/11 02:23:10;;;;;;;37.78;16.45;;;;;;;;;;5022623;28;20049;-63
2023/07/11 02:25:39;;;;;;;39.90;17.98;;;;;;;;;;5021773;28;20502;-60
2023/07/11 02:28:09;;;;;;;49.58;19.73;;;;;;;;;;5022519;28;20103;-74
2023/07/11 02:30:37;;;;;;;48.40;19.73;;;;;;;;;;5020036;28;20049;-62
2023/07/11 02:33:06;;;;;;;41.63;18.58;;;;;;;;;;5021756;28;20107;-62
2023/07/11 02:35:34;;;;;;;49.80;19.45;;;;;;;;;;5020846;28;20104;-60
2023/07/11 02:38:02;;;;;;;44.10;18.17;;;;;;;;;;5019076;28;20159;-61
2023/07/11 02:40:31;;;;;;;42.13;17.67;;;;;;;;;;5023176;28;20042;-60
2023/07/11 02:42:59;;;;;;;39.88;15.93;;;;;;;;;;5022636;28;20565;-60
2023/07/11 02:45:29;;;;;;;42.55;17.25;;;;;;;;;;5021478;28;20420;-63
2023/07/11 02:47:57;;;;;;;42.08;16.48;;;;;;;;;;5020488;28;20721;-68
2023/07/11 02:50:26;;;;;;;36.88;15.65;;;;;;;;;;5021098;28;20049;-73
2023/07/11 02:52:54;;;;;;;31.88;14.48;;;;;;;;;;5021203;28;20176;-60
2023/07/11 02:55:22;;;;;;;34.38;14.70;;;;;;;;;;5020661;28;20049;-58
2023/07/11 02:57:51;;;;;;;38.28;15.98;;;;;;;;;;5023204;28;20441;-62
2023/07/11 03:00:19;;;;;;;34.65;15.15;;;;;;;;;;5022496;28;20041;-58
2023/07/11 03:02:49;;;;;;;30.15;14.07;;;;;;;;;;5021848;28;20461;-58
2023/07/11 03:05:17;;;;;;;30.33;14.70;;;;;;;;;;5021652;28;20049;-60
2023/07/11 03:07:46;;;;;;;31.80;14.80;;;;;;;;;;5018355;28;20051;-67
2023/07/11 03:10:14;;;;;;;30.20;13.90;;;;;;;;;;5022373;28;20110;-60
2023/07/11 03:12:43;;;;;;;28.95;14.00;;;;;;;;;;5016904;28;20064;-66
2023/07/11 03:15:11;;;;;;;32.28;13.90;;;;;;;;;;5018483;28;20485;-59
2023/07/11 03:17:39;;;;;;;30.50;13.10;;;;;;;;;;5020687;28;20099;-60
2023/07/11 03:20:10;;;;;;;32.25;12.90;;;;;;;;;;5017471;28;20053;-72
2023/07/11 03:22:38;;;;;;;28.48;13.98;;;;;;;;;;5017382;28;20330;-64
2023/07/11 03:25:07;;;;;;;31.60;13.70;;;;;;;;;;5019119;28;20077;-67
2023/07/11 03:27:36;;;;;;;28.63;13.68;;;;;;;;;;5023068;28;20053;-60
2023/07/11 03:30:04;;;;;;;29.92;13.10;;;;;;;;;;5020800;28;20123;-58
2023/07/11 03:32:32;;;;;;;29.88;13.05;;;;;;;;;;5019605;28;20068;-61
2023/07/11 03:35:01;;;;;;;28.42;12.98;;;;;;;;;;5017862;28;20143;-69
2023/07/11 03:37:32;;;;;;;27.17;12.30;;;;;;;;;;5022084;28;20053;-61
2023/07/11 03:40:01;;;;;;;25.55;12.57;;;;;;;;;;5021524;28;20155;-60
2023/07/11 03:42:29;;;;;;;23.15;11.18;;;;;;;;;;5019028;28;20498;-59
2023/07/11 03:44:57;;;;;;;29.02;12.40;;;;;;;;;;5021492;28;20057;-59
2023/07/11 03:47:26;;;;;;;24.80;11.27;;;;;;;;;;5022837;28;20046;-58
2023/07/11 03:49:54;;;;;;;24.92;10.98;;;;;;;;;;5018854;28;20054;-58
2023/07/11 03:52:22;;;;;;;23.00;10.93;;;;;;;;;;5021647;28;20690;-58
2023/07/11 03:54:52;;;;;;;26.88;11.52;;;;;;;;;;5017879;28;20045;-61
2023/07/11 03:57:21;;;;;;;23.60;11.23;;;;;;;;;;5020929;28;20064;-63
2023/07/11 03:59:49;;;;;;;20.63;10.23;;;;;;;;;;5019040;28;20046;-61
2023/07/11 04:02:18;;;;;;;20.42;10.32;;;;;;;;;;5020138;28;20073;-58
2023/07/11 04:04:46;;;;;;;23.92;11.15;;;;;;;;;;5022834;28;20053;-58
2023/07/11 04:07:15;;;;;;;29.55;11.43;;;;;;;;;;5017308;28;20141;-67
2023/07/11 04:09:43;;;;;;;20.48;10.40;;;;;;;;;;5014591;28;20127;-62
2023/07/11 04:12:12;;;;;;;22.70;10.05;;;;;;;;;;5015181;28;20126;-59
2023/07/11 04:14:41;;;;;;;22.55;10.55;;;;;;;;;;5014661;28;20045;-60
2023/07/11 04:17:09;;;;;;;24.42;9.98;;;;;;;;;;5011621;28;20104;-60
2023/07/11 04:19:37;;;;;;;22.33;10.95;;;;;;;;;;5015937;28;20107;-60
2023/07/11 04:22:06;;;;;;;26.45;12.23;;;;;;;;;;5021658;28;20049;-68
2023/07/11 04:24:34;;;;;;;27.27;11.50;;;;;;;;;;5022880;28;20045;-59
2023/07/11 04:27:03;;;;;;;25.02;11.90;;;;;;;;;;5025185;28;20107;-63
2023/07/11 04:29:33;;;;;;;25.08;10.93;;;;;;;;;;5020905;28;20045;-64
2023/07/11 04:32:01;;;;;;;27.92;13.10;;;;;;;;;;5022066;28;20176;-61
2023/07/11 04:34:29;;;;;;;33.80;13.98;;;;;;;;;;5021983;28;20053;-72
2023/07/11 04:36:58;;;;;;;29.67;11.60;;;;;;;;;;5017607;28;20589;-59
2023/07/11 04:39:26;;;;;;;31.45;14.25;;;;;;;;;;5018905;28;20177;-60
2023/07/11 04:41:54;;;;;;;31.55;13.32;;;;;;;;;;5017174;28;20068;-60
2023/07/11 04:44:23;;;;;;;29.88;13.82;;;;;;;;;;5018918;28;20132;-72
2023/07/11 04:46:52;;;;;;;31.95;13.70;;;;;;;;;;5021962;28;20073;-69
2023/07/11 04:49:21;;;;;;;29.25;14.57;;;;;;;;;;5024439;28;20056;-62
2023/07/11 04:51:51;;;;;;;31.77;14.68;;;;;;;;;;5021967;28;20087;-62
2023/07/11 04:54:19;;;;;;;31.48;15.45;;;;;;;;;;5014057;28;20104;-59
2023/07/11 04:56:55;;;;;;;37.70;15.20;;;;;;;;;;5020331;28;20082;-64
2023/07/11 04:59:24;;;;;;;31.45;13.80;;;;;;;;;;5017989;28;20554;-70
2023/07/11 05:01:54;;;;;;;34.03;14.65;;;;;;;;;;5022025;28;20058;-63
2023/07/11 05:04:22;;;;;;;28.55;14.35;;;;;;;;;;5017161;28;20073;-59
2023/07/11 05:06:51;;;;;;;33.92;13.30;;;;;;;;;;5020164;28;20514;-62
2023/07/11 05:09:19;;;;;;;34.83;15.05;;;;;;;;;;5021970;28;20182;-60
2023/07/11 05:11:47;;;;;;;31.55;13.55;;;;;;;;;;5013869;28;20057;-62
2023/07/11 05:14:16;;;;;;;29.42;13.30;;;;;;;;;;5016732;28;20045;-61
2023/07/11 05:16:44;;;;;;;37.13;13.23;;;;;;;;;;5016604;28;20057;-68
2023/07/11 05:19:14;;;;;;;31.30;13.88;;;;;;;;;;5014215;28;20053;-69
2023/07/11 05:21:42;;;;;;;25.58;13.00;;;;;;;;;;5017969;28;20139;-64
2023/07/11 05:24:11;;;;;;;26.35;11.05;;;;;;;;;;5022896;28;20148;-61
2023/07/11 05:26:39;;;;;;;32.22;12.48;;;;;;;;;;5021830;28;20140;-58
2023/07/11 05:29:08;;;;;;;28.77;12.05;;;;;;;;;;5019942;28;20437;-58
2023/07/11 05:31:36;;;;;;;24.92;11.73;;;;;;;;;;5022194;28;20045;-62
2023/07/11 05:34:05;;;;;;;23.52;11.90;;;;;;;;;;5015883;28;20084;-65
2023/07/11 05:36:35;;;;;;;25.25;11.32;;;;;;;;;;5016583;28;20053;-61
2023/07/11 05:39:05;;;;;;;23.38;10.18;;;;;;;;;;5015291;28;20519;-62
2023/07/11 05:41:34;;;;;;;20.73;10.30;;;;;;;;;;5022075;28;20103;-65
2023/07/11 05:44:03;;;;;;;18.85;9.20;;;;;;;;;;5021066;28;20490;-70
2023/07/11 05:46:31;;;;;;;20.73;9.23;;;;;;;;;;5021588;28;20042;-65
2023/07/11 05:49:00;;;;;;;15.52;9.07;;;;;;;;;;5018285;28;20556;-62
2023/07/11 05:51:29;;;;;;;17.60;8.50;;;;;;;;;;5019326;28;20498;-59
2023/07/11 05:53:59;;;;;;;15.13;8.50;;;;;;;;;;5022249;28;20071;-58
2023/07/11 05:56:28;;;;;;;17.38;8.50;;;;;;;;;;5022695;28;20061;-57
2023/07/11 05:58:56;;;;;;;16.48;8.43;;;;;;;;;;5022009;28;20053;-72
2023/07/11 06:01:27;;;;;;;16.52;7.75;;;;;;;;;;5016769;28;20131;-63
2023/07/11 06:04:05;;;;;;;14.73;7.53;;;;;;;;;;5021415;28;20103;-60
2023/07/11 06:06:35;;;;;;;16.05;7.63;;;;;;;;;;5002161;28;20060;-60
2023/07/11 06:09:05;;;;;;;13.90;6.03;;;;;;;;;;5022516;28;20177;-57
2023/07/11 06:11:34;;;;;;;9.48;5.72;;;;;;;;;;5021616;28;20072;-63
2023/07/11 06:14:03;;;;;;;10.93;4.88;;;;;;;;;;5015406;28;20042;-62
2023/07/11 06:16:31;;;;;;;10.50;5.55;;;;;;;;;;5017692;28;20046;-70
2023/07/11 06:19:00;;;;;;;11.05;5.00;;;;;;;;;;5023469;28;20052;-62
2023/07/11 06:21:28;;;;;;;9.98;4.90;;;;;;;;;;5020287;28;20119;-59
2023/07/11 06:23:57;;;;;;;8.32;5.00;;;;;;;;;;5019783;28;20050;-64
2023/07/11 06:26:27;;;;;;;8.75;5.35;;;;;;;;;;5016666;28;20127;-60
2023/07/11 06:28:56;;;;;;;7.93;4.72;;;;;;;;;;5018250;28;20057;-59
2023/07/11 06:31:24;;;;;;;10.70;5.25;;;;;;;;;;5020837;28;21579;-57
2023/07/11 06:33:53;;;;;;;7.50;4.40;;;;;;;;;;5020869;28;20519;-62
2023/07/11 06:36:21;;;;;;;7.13;4.50;;;;;;;;;;5019884;28;20046;-67
2023/07/11 06:38:49;;;;;;;7.45;4.40;;;;;;;;;;5021410;28;20052;-59
2023/07/11 06:41:18;;;;;;;8.18;4.55;;;;;;;;;;5018317;28;20749;-59
2023/07/11 06:43:47;;;;;;;14.35;4.45;;;;;;;;;;5022066;28;20053;-68
2023/07/11 06:46:16;;;;;;;8.35;4.85;;;;;;;;;;5020353;28;20057;-58
2023/07/11 06:48:44;;;;;;;11.15;4.10;;;;;;;;;;5018078;28;20092;-58
2023/07/11 06:51:13;;;;;;;7.70;3.90;;;;;;;;;;5016856;28;20064;-69
2023/07/11 06:53:41;;;;;;;10.20;4.10;;;;;;;;;;5018479;28;20053;-62
2023/07/11 06:56:10;;;;;;;8.60;3.88;;;;;;;;;;5020382;28;20053;-60
2023/07/11 06:58:38;;;;;;;17.58;4.03;;;;;;;;;;5018597;28;20468;-58
2023/07/11 07:01:08;;;;;;;8.88;4.20;;;;;;;;;;5015298;28;20111;-60
2023/07/11 07:03:53;;;;;;;6.03;3.45;;;;;;;;;;5018050;28;20499;-61
2023/07/11 07:06:22;;;;;;;5.50;3.30;;;;;;;;;;5017914;28;20053;-61
2023/07/11 07:08:50;;;;;;;6.35;3.05;;;;;;;;;;5020370;28;20045;-65
2023/07/11 07:11:19;;;;;;;4.20;2.95;;;;;;;;;;5020687;28;20045;-67
2023/07/11 07:13:49;;;;;;;5.50;3.40;;;;;;;;;;5018692;28;20380;-63
2023/07/11 07:16:34;;;;;;;7.13;3.38;;;;;;;;;;5018808;28;20138;-59
2023/07/11 07:19:03;;;;;;;6.25;3.38;;;;;;;;;;5020922;28;20490;-64
2023/07/11 07:21:32;;;;;;;4.82;3.28;;;;;;;;;;5019686;28;20050;-58
2023/07/11 07:24:00;;;;;;;5.28;3.50;;;;;;;;;;5017813;28;20137;-59
2023/07/11 07:26:29;;;;;;;6.10;3.60;;;;;;;;;;5016032;28;20511;-58
2023/07/11 07:28:57;;;;;;;7.18;3.80;;;;;;;;;;5019655;28;20506;-61
2023/07/11 07:31:26;;;;;;;6.78;3.75;;;;;;;;;;5020480;28;20049;-58
2023/07/11 07:33:55;;;;;;;5.78;3.72;;;;;;;;;;5019280;28;20127;-61
2023/07/11 07:36:25;;;;;;;6.63;3.78;;;;;;;;;;5016802;28;20045;-68
2023/07/11 07:38:54;;;;;;;6.07;3.55;;;;;;;;;;5018451;28;20041;-60
2023/07/11 07:41:22;;;;;;;5.47;3.47;;;;;;;;;;5017499;28;20699;-60
2023/07/11 07:43:51;;;;;;;4.93;3.15;;;;;;;;;;5021062;28;20065;-62
2023/07/11 07:46:19;;;;;;;7.32;3.70;;;;;;;;;;5014777;28;20065;-61
2023/07/11 07:48:48;;;;;;;6.15;3.72;;;;;;;;;;5016272;28;20456;-62
2023/07/11 07:51:18;;;;;;;4.97;3.10;;;;;;;;;;5019692;28;20558;-61
2023/07/11 07:53:47;;;;;;;4.88;3.08;;;;;;;;;;5020408;28;20050;-67
2023/07/11 07:56:17;;;;;;;4.70;3.15;;;;;;;;;;5021179;28;20623;-59
2023/07/11 07:58:45;;;;;;;6.03;3.63;;;;;;;;;;5022932;28;20057;-66
2023/07/11 08:01:14;;;;;;;7.15;3.78;;;;;;;;;;5022123;28;20526;-65
2023/07/11 08:03:44;;;;;;;7.18;3.80;;;;;;;;;;5020844;28;20156;-59
2023/07/11 08:06:13;;;;;;;7.05;3.85;;;;;;;;;;5018753;28;20088;-66
2023/07/11 08:08:46;;;;;;;8.38;3.88;;;;;;;;;;5024467;28;20057;-63
2023/07/11 08:11:15;;;;;;;6.22;3.63;;;;;;;;;;5024307;28;20050;-59
2023/07/11 08:13:43;;;;;;;6.85;3.70;;;;;;;;;;5022406;28;20072;-62
2023/07/11 08:16:15;;;;;;;8.25;4.32;;;;;;;;;;5023400;28;20053;-67
2023/07/11 08:18:58;;;;;;;6.95;3.58;;;;;;;;;;5022190;28;20505;-59
2023/07/11 08:21:27;;;;;;;4.88;3.53;;;;;;;;;;5024599;28;20046;-61
2023/07/11 08:23:56;;;;;;;7.28;4.60;;;;;;;;;;5021524;28;20049;-61
2023/07/11 08:26:25;;;;;;;7.38;3.80;;;;;;;;;;5020724;28;20076;-59
2023/07/11 08:28:54;;;;;;;4.28;3.08;;;;;;;;;;5020851;28;20041;-62
2023/07/11 08:31:23;;;;;;;5.20;3.55;;;;;;;;;;5021031;28;20085;-59
2023/07/11 08:33:52;;;;;;;5.97;3.72;;;;;;;;;;5023451;28;20049;-59
2023/07/11 08:36:20;;;;;;;8.98;4.43;;;;;;;;;;5021675;28;20530;-62
2023/07/11 08:38:49;;;;;;;6.43;4.15;;;;;;;;;;5020241;28;20495;-69
2023/07/11 08:41:25;;;;;;;7.78;4.32;;;;;;;;;;5024039;28;20561;-64
2023/07/11 08:43:56;;;;;;;9.60;3.78;;;;;;;;;;5020959;28;20049;-59
2023/07/11 08:46:25;;;;;;;7.07;4.10;;;;;;;;;;5021285;28;21286;-61
2023/07/11 08:48:55;;;;;;;9.13;4.35;;;;;;;;;;5022409;28;20050;-59
2023/07/11 08:51:25;;;;;;;8.20;4.38;;;;;;;;;;5020733;28;20453;-63
2023/07/11 08:53:58;;;;;;;6.53;4.20;;;;;;;;;;5024441;28;20081;-69
2023/07/11 08:56:36;;;;;;;5.78;3.85;;;;;;;;;;5023581;28;20057;-66
2023/07/11 08:59:10;;;;;;;7.60;4.38;;;;;;;;;;5025496;28;20055;-61
2023/07/11 09:01:44;;;;;;;9.93;4.28;;;;;;;;;;5019563;28;20071;-64
2023/07/11 09:04:14;;;;;;;9.03;4.67;;;;;;;;;;5019643;28;20057;-67
2023/07/11 09:06:49;;;;;;;8.15;3.90;;;;;;;;;;5021764;28;20050;-59
2023/07/11 09:09:17;;;;;;;10.93;4.32;;;;;;;;;;5019074;28;20234;-66
2023/07/11 09:11:51;;;;;;;6.60;3.70;;;;;;;;;;5014982;28;20046;-59
2023/07/11 09:14:27;;;;;;;8.93;3.92;;;;;;;;;;5021191;28;20103;-60
2023/07/11 09:17:01;;;;;;;6.72;4.35;;;;;;;;;;5022058;28;20133;-58
2023/07/11 09:19:38;;;;;;;4.93;3.97;;;;;;;;;;5022096;28;21076;-59
2023/07/11 09:22:11;;;;;;;6.85;4.18;;;;;;;;;;5020788;28;20050;-62
2023/07/11 09:24:43;;;;;;;8.85;4.40;;;;;;;;;;5017627;28;20403;-62
2023/07/11 09:27:17;;;;;;;6.68;4.38;;;;;;;;;;5022043;28;20502;-60
2023/07/11 09:29:46;;;;;;;8.30;4.10;;;;;;;;;;5021558;28;20080;-64
2023/07/11 09:32:15;;;;;;;8.35;4.43;;;;;;;;;;5019840;28;20128;-65
2023/07/11 09:34:45;;;;;;;5.25;3.70;;;;;;;;;;5018691;28;20493;-64
2023/07/11 09:37:15;;;;;;;6.55;3.90;;;;;;;;;;5023072;28;20077;-59
2023/07/11 09:39:48;;;;;;;8.85;4.18;;;;;;;;;;5023610;28;20053;-64
2023/07/11 09:42:21;;;;;;;9.38;4.53;;;;;;;;;;5020827;28;20049;-59
2023/07/11 09:44:59;;;;;;;10.40;4.20;;;;;;;;;;5017545;28;20056;-62
2023/07/11 09:47:30;;;;;;;6.80;4.03;;;;;;;;;;5019559;28;20140;-59
2023/07/11 09:50:00;;;;;;;6.28;4.32;;;;;;;;;;5019888;28;20049;-62
2023/07/11 09:52:29;;;;;;;11.57;5.10;;;;;;;;;;5022202;28;20049;-60
2023/07/11 09:54:58;;;;;;;7.20;4.90;;;;;;;;;;5021107;28;20045;-60
2023/07/11 09:57:45;;;;;;;9.75;4.60;;;;;;;;;;5017244;28;20041;-60
2023/07/11 10:00:14;;;;;;;14.23;4.43;;;;;;;;;;5022093;28;20049;-61
2023/07/11 10:02:51;;;;;;;8.32;4.43;;;;;;;;;;5017368;28;20053;-60
2023/07/11 10:05:22;;;;;;;7.03;4.35;;;;;;;;;;5020075;28;20049;-68
2023/07/11 10:07:59;;;;;;;8.10;5.03;;;;;;;;;;5020857;28;20131;-61
2023/07/11 10:10:28;;;;;;;5.70;4.18;;;;;;;;;;5016679;28;20474;-67
2023/07/11 10:13:02;;;;;;;6.97;4.40;;;;;;;;;;5018110;28;20123;-59
2023/07/11 10:15:48;;;;;;;6.68;4.65;;;;;;;;;;5018862;28;20061;-64
2023/07/11 10:18:18;;;;;;;9.55;4.72;;;;;;;;;;5019478;28;20593;-63
2023/07/11 10:20:47;;;;;;;8.38;4.43;;;;;;;;;;5020676;28;20182;-62
2023/07/11 10:23:18;;;;;;;9.77;4.75;;;;;;;;;;5020477;28;20049;-60
2023/07/11 10:25:47;;;;;;;8.20;4.70;;;;;;;;;;5021637;28;20052;-61
2023/07/11 10:28:23;;;;;;;8.88;5.00;;;;;;;;;;5020069;28;20099;-65
2023/07/11 10:30:52;;;;;;;7.05;4.88;;;;;;;;;;5019792;28;20093;-61
2023/07/11 10:33:23;;;;;;;5.68;4.45;;;;;;;;;;5021041;28;20479;-60
2023/07/11 10:36:03;;;;;;;9.95;4.65;;;;;;;;;;5020725;28;20140;-58
2023/07/11 10:38:44;;;;;;;9.27;4.82;;;;;;;;;;5020819;28;20072;-61
2023/07/11 10:41:14;;;;;;;6.72;4.38;;;;;;;;;;5019678;28;20077;-62
2023/07/11 10:43:43;;;;;;;9.13;4.32;;;;;;;;;;5023054;28;20144;-59
2023/07/11 10:46:15;;;;;;;8.77;4.68;;;;;;;;;;5020585;28;20045;-60
2023/07/11 10:48:47;;;;;;;6.50;4.40;;;;;;;;;;5012068;28;20060;-62
2023/07/11 10:51:17;;;;;;;6.80;4.43;;;;;;;;;;5017495;28;20559;-63
2023/07/11 10:53:48;;;;;;;7.00;4.70;;;;;;;;;;5019818;28;20053;-61
2023/07/11 10:56:19;;;;;;;11.43;5.13;;;;;;;;;;5017428;28;20045;-60
2023/07/11 10:58:52;;;;;;;7.90;5.03;;;;;;;;;;5018048;28;20444;-64
2023/07/11 11:01:25;;;;;;;9.27;4.90;;;;;;;;;;5017410;28;20057;-63
2023/07/11 11:03:59;;;;;;;8.40;4.80;;;;;;;;;;5018987;28;20533;-65
2023/07/11 11:06:49;;;;;;;6.60;4.67;;;;;;;;;;5016617;28;20068;-62
2023/07/11 11:09:22;;;;;;;7.25;4.38;;;;;;;;;;5020018;28;20494;-61
2023/07/11 11:11:57;;;;;;;7.47;4.80;;;;;;;;;;5015754;28;20057;-64
2023/07/11 11:14:32;;;;;;;6.90;4.38;;;;;;;;;;5018195;28;20298;-66
2023/07/11 11:17:07;;;;;;;8.43;4.35;;;;;;;;;;5017121;28;20111;-66
2023/07/11 11:19:35;;;;;;;;;;;;;;;;;;5021104;28;20061;-60
2023/07/11 11:22:06;;;;;;;7.30;4.25;;;;;;;;;;5015865;28;19956;-61
2023/07/11 11:24:42;;;;;;;6.35;4.32;;;;;;;;;;5015918;28;20111;-62
2023/07/11 11:27:18;;;;;;;4.97;3.90;;;;;;;;;;5019486;28;20407;-66
2023/07/11 11:29:55;;;;;;;8.88;4.55;;;;;;;;;;5019041;28;20148;-62
2023/07/11 11:32:30;;;;;;;6.68;4.05;;;;;;;;;;5014671;28;20462;-61
2023/07/11 11:35:12;;;;;;;7.35;3.67;;;;;;;;;;5015546;28;20099;-62
2023/07/11 11:37:57;;;;;;;11.50;4.22;;;;;;;;;;5020536;28;20049;-60
2023/07/11 11:40:28;;;;;;;5.57;3.85;;;;;;;;;;5013636;28;20200;-67
2023/07/11 11:43:00;;;;;;;8.15;4.15;;;;;;;;;;5014505;28;20531;-62
2023/07/11 11:45:31;;;;;;;7.50;3.83;;;;;;;;;;5017871;28;20069;-62
2023/07/11 11:48:21;;;;;;;6.22;3.90;;;;;;;;;;5017777;28;20494;-61
2023/07/11 11:51:11;;;;;;;6.13;4.03;;;;;;;;;;5014985;28;20065;-68
2023/07/11 11:53:45;;;;;;;5.60;4.28;;;;;;;;;;5017662;28;20087;-61
2023/07/11 11:56:15;;;;;;;6.28;3.63;;;;;;;;;;5017881;28;20052;-60
2023/07/11 11:58:54;;;;;;;10.70;3.58;;;;;;;;;;5016840;28;20049;-65
2023/07/11 12:01:38;;;;;;;7.07;3.30;;;;;;;;;;5018112;28;20045;-63
2023/07/11 12:04:21;;;;;;;5.40;3.67;;;;;;;;;;5014729;28;20068;-62
2023/07/11 12:06:52;;;;;;;7.47;3.77;;;;;;;;;;5003379;28;20081;-62
2023/07/11 12:09:24;;;;;;;4.05;3.15;;;;;;;;;;5019369;28;20308;-66
2023/07/11 12:12:08;;;;;;;6.28;3.95;;;;;;;;;;5018302;28;20057;-63
2023/07/11 12:14:37;;;;;;;5.00;4.10;;;;;;;;;;5014412;28;20057;-63
2023/07/11 12:17:27;;;;;;;6.70;3.65;;;;;;;;;;5016186;28;20061;-67
2023/07/11 12:20:05;;;;;;;5.03;3.83;;;;;;;;;;5015577;28;20037;-64
2023/07/11 12:22:53;;;;;;;6.00;4.13;;;;;;;;;;5017281;28;20061;-64
2023/07/11 12:25:26;;;;;;;5.90;4.00;;;;;;;;;;5017420;28;20116;-61
2023/07/11 12:28:01;;;;;;;7.33;3.77;;;;;;;;;;5013429;28;20072;-61
2023/07/11 12:30:38;;;;;;;7.88;4.00;;;;;;;;;;5017991;28;20465;-63
2023/07/11 12:33:32;;;;;;;6.32;4.20;;;;;;;;;;5016420;28;20112;-62
2023/07/11 12:36:04;;;;;;;6.50;3.70;;;;;;;;;;5012089;28;20108;-68
2023/07/11 12:38:35;;;;;;;8.95;3.58;;;;;;;;;;5016779;28;20049;-67
2023/07/11 12:41:13;;;;;;;6.10;4.13;;;;;;;;;;5018898;28;20088;-74
2023/07/11 12:43:46;;;;;;;5.18;3.28;;;;;;;;;;5021171;28;20457;-70
2023/07/11 12:46:19;;;;;;;5.47;3.47;;;;;;;;;;5019705;28;20115;-61
2023/07/11 12:48:49;;;;;;;5.30;3.35;;;;;;;;;;5017562;28;20037;-65
2023/07/11 12:51:24;;;;;;;6.43;3.40;;;;;;;;;;5020192;28;20846;-63
2023/07/11 12:53:53;;;;;;;5.20;3.55;;;;;;;;;;5023425;28;20096;-64
2023/07/11 12:56:23;;;;;;;6.80;3.97;;;;;;;;;;5020737;28;20472;-67
2023/07/11 12:58:51;;;;;;;5.75;3.72;;;;;;;;;;5021556;28;20141;-63
2023/07/11 13:01:20;;;;;;;7.25;3.80;;;;;;;;;;5021386;28;20148;-69
2023/07/11 13:03:48;;;;;;;6.63;3.70;;;;;;;;;;5020124;28;20054;-60
2023/07/11 13:06:20;;;;;;;9.05;4.25;;;;;;;;;;5020991;28;20075;-61
2023/07/11 13:08:50;;;;;;;6.00;3.85;;;;;;;;;;5022287;28;20053;-60
2023/07/11 13:11:21;;;;;;;5.13;3.75;;;;;;;;;;5022374;28;20037;-60
2023/07/11 13:13:51;;;;;;;7.40;3.83;;;;;;;;;;5019277;28;20049;-69
2023/07/11 13:16:22;;;;;;;10.13;3.72;;;;;;;;;;5019539;28;20108;-62
2023/07/11 13:18:51;;;;;;;6.47;3.78;;;;;;;;;;5019578;28;20045;-75
2023/07/11 13:21:20;;;;;;;8.05;3.92;;;;;;;;;;5025086;28;20045;-62
2023/07/11 13:23:49;;;;;;;4.80;3.70;;;;;;;;;;5018075;28;20046;-61
2023/07/11 13:26:20;;;;;;;5.40;3.92;;;;;;;;;;5021540;28;20095;-61
2023/07/11 13:28:59;;;;;;;5.65;3.75;;;;;;;;;;5020291;28;20057;-62
2023/07/11 13:31:31;;;;;;;6.75;4.28;;;;;;;;;;5018727;28;20056;-60
2023/07/11 13:34:00;;;;;;;6.63;4.05;;;;;;;;;;5018659;28;20256;-64
2023/07/11 13:36:31;;;;;;;5.25;3.92;;;;;;;;;;5019610;28;20085;-69
2023/07/11 13:39:06;;;;;;;9.63;4.17;;;;;;;;;;5019940;28;20042;-73
2023/07/11 13:41:36;;;;;;;6.20;4.10;;;;;;;;;;5022150;28;20061;-63
2023/07/11 13:44:25;;;;;;;7.68;3.88;;;;;;;;;;5021499;28;20084;-61
2023/07/11 13:46:55;;;;;;;6.93;4.18;;;;;;;;;;5020376;28;20045;-61
2023/07/11 13:49:24;;;;;;;4.40;3.15;;;;;;;;;;5019791;28;20373;-66
2023/07/11 13:51:57;;;;;;;5.70;3.33;;;;;;;;;;5022120;28;20191;-62
2023/07/11 13:54:30;;;;;;;4.93;3.40;;;;;;;;;;5019166;28;20728;-61
2023/07/11 13:56:58;;;;;;;6.70;3.67;;;;;;;;;;5020387;28;20099;-61
2023/07/11 13:59:27;;;;;;;9.38;3.65;;;;;;;;;;5021378;28;20068;-61
2023/07/11 14:02:13;;;;;;;5.63;3.75;;;;;;;;;;5019033;28;20046;-60
2023/07/11 14:04:42;;;;;;;7.95;3.85;;;;;;;;;;5020098;28;20053;-65
2023/07/11 14:07:11;;;;;;;4.32;3.30;;;;;;;;;;5021034;28;20054;-66
2023/07/11 14:09:40;;;;;;;8.45;3.95;;;;;;;;;;5019856;28;20100;-64
2023/07/11 14:12:12;;;;;;;7.45;3.92;;;;;;;;;;5020325;28;20107;-63
2023/07/11 14:14:41;;;;;;;7.57;3.85;;;;;;;;;;5018161;28;20046;-67
2023/07/11 14:17:15;;;;;;;5.88;3.63;;;;;;;;;;5020908;28;20077;-61
2023/07/11 14:19:43;;;;;;;5.57;3.45;;;;;;;;;;5014795;28;20060;-64
2023/07/11 14:22:14;;;;;;;8.07;3.80;;;;;;;;;;5020549;28;20049;-62
2023/07/11 14:24:44;;;;;;;7.10;3.97;;;;;;;;;;5019840;28;20049;-74
2023/07/11 14:27:16;;;;;;;7.60;3.80;;;;;;;;;;5020584;28;20586;-60
2023/07/11 14:29:45;;;;;;;4.85;3.78;;;;;;;;;;5022348;28;20479;-60
2023/07/11 14:32:16;;;;;;;6.72;4.13;;;;;;;;;;5019168;28;20056;-63
2023/07/11 14:34:44;;;;;;;7.38;3.67;;;;;;;;;;5019760;28;20044;-63
2023/07/11 14:37:14;;;;;;;4.97;3.38;;;;;;;;;;5020296;28;20059;-66
2023/07/11 14:39:43;;;;;;;5.78;3.28;;;;;;;;;;5022157;28;20047;-63
2023/07/11 14:42:18;;;;;;;6.40;3.70;;;;;;;;;;5020640;28;20053;-64
2023/07/11 14:44:46;;;;;;;5.32;3.58;;;;;;;;;;5020356;28;20049;-62
2023/07/11 14:47:16;;;;;;;5.35;3.53;;;;;;;;;;5021822;28;20054;-60
2023/07/11 14:49:44;;;;;;;6.30;3.67;;;;;;;;;;5021209;28;20045;-62
2023/07/11 14:52:26;;;;;;;5.93;3.67;;;;;;;;;;5018307;28;20127;-60
2023/07/11 14:54:55;;;;;;;6.63;3.65;;;;;;;;;;5012420;28;20089;-60